createdAt,value
2022-12-18T00:01:37.941Z,99.9
2022-12-18T00:06:39.970Z,99.9
2022-12-18T00:11:43.133Z,99.9
2022-12-18T00:16:45.495Z,99.9
2022-12-18T00:21:47.594Z,99.9
2022-12-18T00:26:49.513Z,99.9
2022-12-18T00:31:51.987Z,99.9
2022-12-18T00:36:54.149Z,99.9
2022-12-18T00:41:56.127Z,99.9
2022-12-18T00:46:58.265Z,99.9
2022-12-18T00:52:00.363Z,99.9
2022-12-18T00:57:02.507Z,99.9
2022-12-18T01:02:05.377Z,99.9
2022-12-18T01:07:07.479Z,99.9
2022-12-18T01:12:09.463Z,99.9
2022-12-18T01:17:11.525Z,99.9
2022-12-18T01:22:13.524Z,99.9
2022-12-18T01:27:15.578Z,99.9
2022-12-18T01:32:17.675Z,99.9
2022-12-18T01:37:19.817Z,99.9
2022-12-18T01:42:21.794Z,99.9
2022-12-18T01:47:23.740Z,99.9
2022-12-18T01:52:25.851Z,99.9
2022-12-18T01:57:27.957Z,99.9
2022-12-18T02:02:30.998Z,99.9
2022-12-18T02:07:33.032Z,99.9
2022-12-18T02:12:35.655Z,99.9
2022-12-18T02:17:39.110Z,99.9
2022-12-18T02:22:41.141Z,99.9
2022-12-18T02:27:43.217Z,99.9
2022-12-18T02:32:45.467Z,99.9
2022-12-18T02:37:47.474Z,99.9
2022-12-18T02:42:50.222Z,99.9
2022-12-18T02:47:52.767Z,99.9
2022-12-18T02:52:55.009Z,99.9
2022-12-18T02:57:57.030Z,99.9
2022-12-18T03:03:00.469Z,99.9
2022-12-18T03:08:02.531Z,99.9
2022-12-18T03:13:04.598Z,99.9
2022-12-18T03:18:07.161Z,99.9
2022-12-18T03:23:09.187Z,99.9
2022-12-18T03:28:11.279Z,99.9
2022-12-18T03:33:13.278Z,99.9
2022-12-18T03:38:15.304Z,99.9
2022-12-18T03:43:18.629Z,99.9
2022-12-18T03:48:21.069Z,99.9
2022-12-18T03:53:23.377Z,99.9
2022-12-18T03:58:25.361Z,99.9
2022-12-18T04:03:29.462Z,99.9
2022-12-18T04:08:31.481Z,99.9
2022-12-18T04:13:34.626Z,99.9
2022-12-18T04:18:36.801Z,99.9
2022-12-18T04:23:40.570Z,99.9
2022-12-18T04:28:42.855Z,99.9
2022-12-18T04:33:45.872Z,99.9
2022-12-18T04:38:47.825Z,99.9
2022-12-18T04:43:49.837Z,99.9
2022-12-18T04:48:51.781Z,99.9
2022-12-18T04:53:53.861Z,99.9
2022-12-18T04:58:55.910Z,99.9
2022-12-18T05:03:58.676Z,99.9
2022-12-18T05:09:03.491Z,99.9
2022-12-18T05:14:05.527Z,99.9
2022-12-18T05:19:07.823Z,99.9
2022-12-18T05:24:10.077Z,99.9
2022-12-18T05:29:12.736Z,99.9
2022-12-18T05:34:16.448Z,99.9
2022-12-18T05:39:18.952Z,99.9
2022-12-18T05:44:21.449Z,99.9
2022-12-18T05:49:23.417Z,99.9
2022-12-18T05:54:25.447Z,99.9
2022-12-18T05:59:27.537Z,99.9
2022-12-18T06:04:29.723Z,99.9
2022-12-18T06:09:31.695Z,99.9
2022-12-18T06:14:33.751Z,99.9
2022-12-18T06:19:35.708Z,99.9
2022-12-18T06:24:37.729Z,99.9
2022-12-18T06:29:39.745Z,99.9
2022-12-18T06:34:41.947Z,99.9
2022-12-18T06:39:43.879Z,99.9
2022-12-18T06:44:46.212Z,99.9
2022-12-18T06:49:48.237Z,99.9
2022-12-18T06:54:51.620Z,99.9
2022-12-18T06:59:53.994Z,99.9
2022-12-18T07:04:56.253Z,99.9
2022-12-18T07:09:58.809Z,99.9
2022-12-18T07:15:01.404Z,99.9
2022-12-18T07:20:03.563Z,99.9
2022-12-18T07:25:05.485Z,99.9
2022-12-18T07:30:07.473Z,99.9
2022-12-18T07:35:09.372Z,99.9
2022-12-18T07:40:11.932Z,99.9
2022-12-18T07:45:14.026Z,99.9
2022-12-18T07:50:16.209Z,99.9
2022-12-18T07:55:18.341Z,99.9
2022-12-18T08:00:22.179Z,99.9
2022-12-18T08:05:24.223Z,99.9
2022-12-18T08:15:27.806Z,99.9
2022-12-18T08:20:29.834Z,99.9
2022-12-18T08:25:32.019Z,99.9
2022-12-18T08:30:35.015Z,99.9
2022-12-18T08:35:47.894Z,99.9
2022-12-18T08:40:40.033Z,99.9
2022-12-18T08:45:42.252Z,99.8
2022-12-18T08:50:44.878Z,97.2
2022-12-18T09:05:54.022Z,99.9
2022-12-18T09:10:56.045Z,95.4
2022-12-18T09:15:58.338Z,95
2022-12-18T09:22:12.500Z,94.8
2022-12-18T09:27:14.948Z,94.7
2022-12-18T09:32:24.484Z,93.7
2022-12-18T09:37:26.548Z,93.7
2022-12-18T09:42:28.472Z,93.3
2022-12-18T09:47:30.884Z,92.4
2022-12-18T09:52:32.916Z,92.4
2022-12-18T09:57:34.994Z,93.6
2022-12-18T10:02:37.668Z,92.6
2022-12-18T10:07:39.769Z,92.3
2022-12-18T10:12:41.758Z,90.6
2022-12-18T10:17:44.166Z,95.6
2022-12-18T10:22:46.202Z,95.7
2022-12-18T10:27:48.173Z,96.1
2022-12-18T10:32:50.470Z,96.5
2022-12-18T10:37:53.041Z,96.2
2022-12-18T10:42:55.190Z,96.1
2022-12-18T10:47:57.149Z,94.5
2022-12-18T10:53:00.007Z,92.3
2022-12-18T10:58:02.265Z,92.2
2022-12-18T11:03:05.318Z,90.9
2022-12-18T11:08:08.110Z,93.3
2022-12-18T11:13:10.087Z,93.3
2022-12-18T11:18:12.151Z,95.2
2022-12-18T11:23:14.524Z,93.2
2022-12-18T11:28:16.481Z,93.2
2022-12-18T11:33:18.334Z,94
2022-12-18T11:38:20.349Z,93.8
2022-12-18T11:43:22.948Z,93.6
2022-12-18T11:48:24.802Z,93.6
2022-12-18T11:58:33.774Z,93.7
2022-12-18T12:03:35.880Z,93.8
2022-12-18T12:08:37.791Z,93.7
2022-12-18T12:13:41.687Z,95.1
2022-12-18T12:18:44.981Z,95.1
2022-12-18T12:23:48.184Z,93.2
2022-12-18T12:28:50.144Z,93.2
2022-12-18T12:33:52.135Z,93.6
2022-12-18T12:38:55.246Z,95.5
2022-12-18T12:43:58.875Z,95
2022-12-18T12:49:02.194Z,94.5
2022-12-18T12:54:05.741Z,93.9
2022-12-18T12:59:08.922Z,93.9
2022-12-18T13:04:12.721Z,96.7
2022-12-18T13:09:16.675Z,95.9
2022-12-18T13:14:20.042Z,96.2
2022-12-18T13:19:22.694Z,96.2
2022-12-18T13:24:25.627Z,96.4
2022-12-18T13:29:30.281Z,96.8
2022-12-18T13:34:35.385Z,97.9
2022-12-18T13:39:39.489Z,98.2
2022-12-18T13:49:44.638Z,99.9
2022-12-18T13:59:49.293Z,99.9
2022-12-18T14:04:51.324Z,99.9
2022-12-18T14:14:58.959Z,99.9
2022-12-18T14:20:01.420Z,99.9
2022-12-18T14:25:03.398Z,99.9
2022-12-18T14:30:09.624Z,99.9
2022-12-18T14:35:13.180Z,99.9
2022-12-18T14:40:15.683Z,99.9
2022-12-18T14:45:18.313Z,99.9
2022-12-18T14:50:21.362Z,99.9
2022-12-18T14:55:24.823Z,99.9
2022-12-18T15:00:26.866Z,99.9
2022-12-18T15:05:29.019Z,99.9
2022-12-18T15:10:31.264Z,99.9
2022-12-18T15:15:33.386Z,99.9
2022-12-18T15:20:35.705Z,99.9
2022-12-18T15:25:37.686Z,99.9
2022-12-18T15:30:39.829Z,99.9
2022-12-18T15:35:49.230Z,99.9
2022-12-18T15:40:51.440Z,99.9
2022-12-18T15:45:53.904Z,99.9
2022-12-18T15:50:56.032Z,99.9
2022-12-18T15:56:03.800Z,99.9
2022-12-18T16:01:07.151Z,99.9
2022-12-18T16:06:09.856Z,99.9
2022-12-18T16:11:11.965Z,99.9
2022-12-18T16:16:14.678Z,99.9
2022-12-18T16:21:16.861Z,99.9
2022-12-18T16:26:43.348Z,99.9
2022-12-18T16:36:34.428Z,99.9
2022-12-18T16:41:36.493Z,99.9
2022-12-18T16:46:38.988Z,99.9
2022-12-18T16:51:41.224Z,99.9
2022-12-18T16:56:43.393Z,99.9
2022-12-18T17:01:46.422Z,99.9
2022-12-18T17:06:48.933Z,99.9
2022-12-18T17:11:50.976Z,99.9
2022-12-18T17:17:25.563Z,99.9
2022-12-18T17:21:57.611Z,99.9
2022-12-18T17:26:59.687Z,99.9
2022-12-18T17:32:03.182Z,99.9
2022-12-18T17:37:05.362Z,99.9
2022-12-18T17:42:16.084Z,99.9
2022-12-18T17:47:08.507Z,99.9
2022-12-18T17:52:10.674Z,99.9
2022-12-18T17:57:13.322Z,99.9
2022-12-18T18:02:18.568Z,99.9
2022-12-18T18:07:22.048Z,99.9
2022-12-18T18:12:24.620Z,99.9
2022-12-18T18:17:26.858Z,99.9
2022-12-18T18:22:29.454Z,99.9
2022-12-18T18:27:40.836Z,99.9
2022-12-18T18:32:32.878Z,99.9
2022-12-18T18:37:36.546Z,99.9
2022-12-18T18:42:38.620Z,99.9
2022-12-18T18:47:40.778Z,99.9
2022-12-18T18:52:46.599Z,99.9
2022-12-18T18:57:51.799Z,99.9
2022-12-18T19:03:02.974Z,99.9
2022-12-18T19:07:55.097Z,99.9
2022-12-18T19:12:57.199Z,99.9
2022-12-18T19:17:59.763Z,99.9
2022-12-18T19:23:02.548Z,99.9
2022-12-18T19:28:22.547Z,99.9
2022-12-18T19:33:45.973Z,99.9
2022-12-18T19:38:18.192Z,99.9
2022-12-18T19:43:21.458Z,99.9
2022-12-18T19:48:23.697Z,99.9
2022-12-18T19:53:25.870Z,99.9
2022-12-18T19:58:27.865Z,99.9
2022-12-18T20:03:35.355Z,99.9
2022-12-18T20:08:37.764Z,99.9
2022-12-18T20:13:42.581Z,99.9
2022-12-18T20:18:51.486Z,99.9
2022-12-18T20:23:56.250Z,99.9
2022-12-18T20:28:59.862Z,99.9
2022-12-18T20:34:14.415Z,99.9
2022-12-18T20:39:14.382Z,99.9
2022-12-18T20:44:26.354Z,99.9
2022-12-18T20:49:18.625Z,99.9
2022-12-18T20:54:20.884Z,99.9
2022-12-18T20:59:23.239Z,99.9
2022-12-18T21:04:34.106Z,99.9
2022-12-18T21:09:26.548Z,99.9
2022-12-18T21:14:28.646Z,99.9
2022-12-18T21:19:31.874Z,99.9
2022-12-18T21:24:35.944Z,99.9
2022-12-18T21:29:38.208Z,99.9
2022-12-18T21:34:49.127Z,99.9
2022-12-18T21:39:41.362Z,99.9
2022-12-18T21:44:44.766Z,99.9
2022-12-18T21:49:47.303Z,99.9
2022-12-18T22:04:50.636Z,99.9
2022-12-18T22:09:52.917Z,99.9
2022-12-18T22:14:55.123Z,99.9
2022-12-18T22:19:57.793Z,99.9
2022-12-18T22:24:59.938Z,99.9
2022-12-18T22:30:02.131Z,99.9
2022-12-18T22:35:17.040Z,99.9
2022-12-18T22:40:13.802Z,99.9
2022-12-18T22:45:15.968Z,99.9
2022-12-18T22:50:17.929Z,99.9
2022-12-18T22:55:19.915Z,99.9
2022-12-18T23:00:27.456Z,99.9
2022-12-18T23:05:22.356Z,99.9
2022-12-18T23:10:24.275Z,99.9
2022-12-18T23:15:31.713Z,99.9
2022-12-18T23:20:37.279Z,99.9
2022-12-18T23:25:40.899Z,99.9
2022-12-18T23:30:43.215Z,99.9
2022-12-18T23:35:45.214Z,99.9
2022-12-18T23:40:55.702Z,99.9
2022-12-18T23:45:57.785Z,99.9
2022-12-18T23:50:49.744Z,99.9
2022-12-18T23:55:54.520Z,99.9
